sensor_id;sensor_type;location;lat;lon;timestamp;temperature;humidity
40996;DHT22;26723;57.478;12.066;2023-03-26T00:01:31;5.20;99.90
40996;DHT22;26723;57.478;12.066;2023-03-26T00:04:44;5.10;99.90
40996;DHT22;26723;57.478;12.066;2023-03-26T00:07:52;5.10;99.90
40996;DHT22;26723;57.478;12.066;2023-03-26T00:11:00;5.10;99.90
40996;DHT22;26723;57.478;12.066;2023-03-26T00:14:09;5.00;99.90
40996;DHT22;26723;57.478;12.066;2023-03-26T00:17:20;4.90;99.90
40996;DHT22;26723;57.478;12.066;2023-03-26T00:20:30;4.90;99.90
40996;DHT22;26723;57.478;12.066;2023-03-26T00:23:40;4.90;99.90
40996;DHT22;26723;57.478;12.066;2023-03-26T00:26:49;4.90;99.90
40996;DHT22;26723;57.478;12.066;2023-03-26T00:30:00;4.80;99.90
40996;DHT22;26723;57.478;12.066;2023-03-26T00:33:09;4.80;99.90
40996;DHT22;26723;57.478;12.066;2023-03-26T00:36:20;4.70;99.90
40996;DHT22;26723;57.478;12.066;2023-03-26T00:39:32;4.60;99.90
40996;DHT22;26723;57.478;12.066;2023-03-26T00:42:43;4.60;99.90
40996;DHT22;26723;57.478;12.066;2023-03-26T00:45:53;4.60;99.90
40996;DHT22;26723;57.478;12.066;2023-03-26T00:49:02;4.50;99.90
40996;DHT22;26723;57.478;12.066;2023-03-26T00:52:12;4.60;99.90
40996;DHT22;26723;57.478;12.066;2023-03-26T00:55:20;4.60;99.90
40996;DHT22;26723;57.478;12.066;2023-03-26T00:58:29;4.50;99.90
40996;DHT22;26723;57.478;12.066;2023-03-26T01:01:39;4.40;99.90
40996;DHT22;26723;57.478;12.066;2023-03-26T01:04:52;4.40;99.90
40996;DHT22;26723;57.478;12.066;2023-03-26T01:08:12;4.50;99.90
40996;DHT22;26723;57.478;12.066;2023-03-26T01:11:25;4.40;99.90
40996;DHT22;26723;57.478;12.066;2023-03-26T01:14:35;4.40;99.90
40996;DHT22;26723;57.478;12.066;2023-03-26T01:17:44;4.40;99.90
40996;DHT22;26723;57.478;12.066;2023-03-26T01:20:54;4.40;99.90
40996;DHT22;26723;57.478;12.066;2023-03-26T01:24:12;4.30;99.90
40996;DHT22;26723;57.478;12.066;2023-03-26T01:27:30;4.30;99.90
40996;DHT22;26723;57.478;12.066;2023-03-26T01:30:42;4.20;99.90
40996;DHT22;26723;57.478;12.066;2023-03-26T01:34:03;4.30;99.90
40996;DHT22;26723;57.478;12.066;2023-03-26T01:37:23;4.20;99.90
40996;DHT22;26723;57.478;12.066;2023-03-26T01:40:35;4.20;99.90
40996;DHT22;26723;57.478;12.066;2023-03-26T01:43:53;4.20;99.90
40996;DHT22;26723;57.478;12.066;2023-03-26T01:47:04;4.10;99.90
40996;DHT22;26723;57.478;12.066;2023-03-26T01:50:14;4.10;99.90
40996;DHT22;26723;57.478;12.066;2023-03-26T01:53:23;4.10;99.90
40996;DHT22;26723;57.478;12.066;2023-03-26T01:56:40;4.10;99.90
40996;DHT22;26723;57.478;12.066;2023-03-26T02:00:01;4.10;99.90
40996;DHT22;26723;57.478;12.066;2023-03-26T02:03:25;4.10;99.90
40996;DHT22;26723;57.478;12.066;2023-03-26T02:06:37;4.00;99.90
40996;DHT22;26723;57.478;12.066;2023-03-26T02:09:50;4.10;99.90
40996;DHT22;26723;57.478;12.066;2023-03-26T02:13:03;4.00;99.90
40996;DHT22;26723;57.478;12.066;2023-03-26T02:16:15;3.90;99.90
40996;DHT22;26723;57.478;12.066;2023-03-26T02:19:25;3.90;99.90
40996;DHT22;26723;57.478;12.066;2023-03-26T02:22:33;3.90;99.90
40996;DHT22;26723;57.478;12.066;2023-03-26T02:25:48;3.90;99.90
40996;DHT22;26723;57.478;12.066;2023-03-26T02:28:59;3.90;99.90
40996;DHT22;26723;57.478;12.066;2023-03-26T02:32:09;3.80;99.90
40996;DHT22;26723;57.478;12.066;2023-03-26T02:35:19;3.80;99.90
40996;DHT22;26723;57.478;12.066;2023-03-26T02:38:34;3.80;99.90
40996;DHT22;26723;57.478;12.066;2023-03-26T02:41:43;3.90;99.90
40996;DHT22;26723;57.478;12.066;2023-03-26T02:44:53;3.80;99.90
40996;DHT22;26723;57.478;12.066;2023-03-26T02:48:24;3.80;99.90
40996;DHT22;26723;57.478;12.066;2023-03-26T02:51:41;3.90;99.90
40996;DHT22;26723;57.478;12.066;2023-03-26T02:55:08;3.70;99.90
40996;DHT22;26723;57.478;12.066;2023-03-26T02:58:18;3.70;99.90
40996;DHT22;26723;57.478;12.066;2023-03-26T03:01:28;3.70;99.90
40996;DHT22;26723;57.478;12.066;2023-03-26T03:04:41;3.60;99.90
40996;DHT22;26723;57.478;12.066;2023-03-26T03:07:50;3.60;99.90
40996;DHT22;26723;57.478;12.066;2023-03-26T03:11:00;3.60;99.90
40996;DHT22;26723;57.478;12.066;2023-03-26T03:14:26;3.60;99.90
40996;DHT22;26723;57.478;12.066;2023-03-26T03:17:36;3.60;99.90
40996;DHT22;26723;57.478;12.066;2023-03-26T03:20:45;3.60;99.90
40996;DHT22;26723;57.478;12.066;2023-03-26T03:23:53;3.50;99.90
40996;DHT22;26723;57.478;12.066;2023-03-26T03:27:07;3.40;99.90
40996;DHT22;26723;57.478;12.066;2023-03-26T03:30:24;3.40;99.90
40996;DHT22;26723;57.478;12.066;2023-03-26T03:33:54;3.40;99.90
40996;DHT22;26723;57.478;12.066;2023-03-26T03:37:03;3.40;99.90
40996;DHT22;26723;57.478;12.066;2023-03-26T03:40:20;3.40;99.90
40996;DHT22;26723;57.478;12.066;2023-03-26T03:43:28;3.40;99.90
40996;DHT22;26723;57.478;12.066;2023-03-26T03:46:50;3.30;99.90
40996;DHT22;26723;57.478;12.066;2023-03-26T03:50:03;3.30;99.90
40996;DHT22;26723;57.478;12.066;2023-03-26T03:53:12;3.40;99.90
40996;DHT22;26723;57.478;12.066;2023-03-26T03:56:25;3.40;99.90
40996;DHT22;26723;57.478;12.066;2023-03-26T03:59:59;3.40;99.90
40996;DHT22;26723;57.478;12.066;2023-03-26T04:03:21;3.40;99.90
40996;DHT22;26723;57.478;12.066;2023-03-26T04:06:46;3.40;99.90
40996;DHT22;26723;57.478;12.066;2023-03-26T04:09:55;3.40;99.90
40996;DHT22;26723;57.478;12.066;2023-03-26T04:13:10;3.40;99.90
40996;DHT22;26723;57.478;12.066;2023-03-26T04:16:33;3.30;99.90
40996;DHT22;26723;57.478;12.066;2023-03-26T04:19:42;3.20;99.90
40996;DHT22;26723;57.478;12.066;2023-03-26T04:22:54;3.20;99.90
40996;DHT22;26723;57.478;12.066;2023-03-26T04:26:06;3.10;99.90
40996;DHT22;26723;57.478;12.066;2023-03-26T04:29:39;3.10;99.90
40996;DHT22;26723;57.478;12.066;2023-03-26T04:32:54;3.10;99.90
40996;DHT22;26723;57.478;12.066;2023-03-26T04:36:07;3.10;99.90
40996;DHT22;26723;57.478;12.066;2023-03-26T04:39:18;3.10;99.90
40996;DHT22;26723;57.478;12.066;2023-03-26T04:42:47;3.00;99.90
40996;DHT22;26723;57.478;12.066;2023-03-26T04:46:09;3.00;99.90
40996;DHT22;26723;57.478;12.066;2023-03-26T04:49:26;2.90;99.90
40996;DHT22;26723;57.478;12.066;2023-03-26T04:52:35;2.90;99.90
40996;DHT22;26723;57.478;12.066;2023-03-26T04:56:00;2.90;99.90
40996;DHT22;26723;57.478;12.066;2023-03-26T04:59:33;2.90;99.90
40996;DHT22;26723;57.478;12.066;2023-03-26T05:02:45;2.90;99.90
40996;DHT22;26723;57.478;12.066;2023-03-26T05:05:57;2.90;99.90
40996;DHT22;26723;57.478;12.066;2023-03-26T05:09:06;2.90;99.90
40996;DHT22;26723;57.478;12.066;2023-03-26T05:12:38;2.80;99.90
40996;DHT22;26723;57.478;12.066;2023-03-26T05:15:53;2.70;99.90
40996;DHT22;26723;57.478;12.066;2023-03-26T05:19:15;2.70;99.90
40996;DHT22;26723;57.478;12.066;2023-03-26T05:22:23;2.70;99.90
40996;DHT22;26723;57.478;12.066;2023-03-26T05:25:49;2.70;99.90
40996;DHT22;26723;57.478;12.066;2023-03-26T05:29:03;2.60;99.90
40996;DHT22;26723;57.478;12.066;2023-03-26T05:32:14;2.50;99.90
40996;DHT22;26723;57.478;12.066;2023-03-26T05:35:24;2.40;99.90
40996;DHT22;26723;57.478;12.066;2023-03-26T05:38:32;2.40;99.90
40996;DHT22;26723;57.478;12.066;2023-03-26T05:41:43;2.40;99.90
40996;DHT22;26723;57.478;12.066;2023-03-26T05:44:52;2.30;99.90
40996;DHT22;26723;57.478;12.066;2023-03-26T05:48:06;2.20;99.90
40996;DHT22;26723;57.478;12.066;2023-03-26T05:51:14;2.20;99.90
40996;DHT22;26723;57.478;12.066;2023-03-26T05:54:34;2.30;99.90
40996;DHT22;26723;57.478;12.066;2023-03-26T05:58:12;2.30;99.90
40996;DHT22;26723;57.478;12.066;2023-03-26T06:01:40;2.30;99.90
40996;DHT22;26723;57.478;12.066;2023-03-26T06:05:02;2.40;99.90
40996;DHT22;26723;57.478;12.066;2023-03-26T06:08:35;2.30;99.90
40996;DHT22;26723;57.478;12.066;2023-03-26T06:11:44;2.40;99.90
40996;DHT22;26723;57.478;12.066;2023-03-26T06:14:52;2.30;99.90
40996;DHT22;26723;57.478;12.066;2023-03-26T06:18:19;2.30;99.90
40996;DHT22;26723;57.478;12.066;2023-03-26T06:21:41;2.30;99.90
40996;DHT22;26723;57.478;12.066;2023-03-26T06:24:56;2.40;99.90
40996;DHT22;26723;57.478;12.066;2023-03-26T06:28:28;2.50;99.90
40996;DHT22;26723;57.478;12.066;2023-03-26T06:31:44;2.50;99.90
40996;DHT22;26723;57.478;12.066;2023-03-26T06:35:00;2.50;99.90
40996;DHT22;26723;57.478;12.066;2023-03-26T06:38:09;2.40;99.90
40996;DHT22;26723;57.478;12.066;2023-03-26T06:41:17;2.30;99.90
40996;DHT22;26723;57.478;12.066;2023-03-26T06:44:49;2.30;99.90
40996;DHT22;26723;57.478;12.066;2023-03-26T06:48:15;2.40;99.90
40996;DHT22;26723;57.478;12.066;2023-03-26T06:51:46;2.30;99.90
40996;DHT22;26723;57.478;12.066;2023-03-26T06:55:16;2.30;99.90
40996;DHT22;26723;57.478;12.066;2023-03-26T06:58:45;2.30;99.90
40996;DHT22;26723;57.478;12.066;2023-03-26T07:02:14;2.30;99.90
40996;DHT22;26723;57.478;12.066;2023-03-26T07:05:40;2.30;99.90
40996;DHT22;26723;57.478;12.066;2023-03-26T07:09:10;2.30;99.90
40996;DHT22;26723;57.478;12.066;2023-03-26T07:12:37;2.20;99.90
40996;DHT22;26723;57.478;12.066;2023-03-26T07:16:08;2.20;99.90
40996;DHT22;26723;57.478;12.066;2023-03-26T07:19:35;2.20;99.90
40996;DHT22;26723;57.478;12.066;2023-03-26T07:22:44;2.10;99.90
40996;DHT22;26723;57.478;12.066;2023-03-26T07:25:58;2.10;99.90
40996;DHT22;26723;57.478;12.066;2023-03-26T07:29:19;2.00;99.90
40996;DHT22;26723;57.478;12.066;2023-03-26T07:32:49;2.00;99.90
40996;DHT22;26723;57.478;12.066;2023-03-26T07:36:27;2.00;99.90
40996;DHT22;26723;57.478;12.066;2023-03-26T07:39:55;2.00;99.90
40996;DHT22;26723;57.478;12.066;2023-03-26T07:43:38;2.00;99.90
40996;DHT22;26723;57.478;12.066;2023-03-26T07:46:48;2.00;99.90
40996;DHT22;26723;57.478;12.066;2023-03-26T07:50:24;2.00;99.90
40996;DHT22;26723;57.478;12.066;2023-03-26T07:53:39;2.10;99.90
40996;DHT22;26723;57.478;12.066;2023-03-26T07:57:19;2.00;99.90
40996;DHT22;26723;57.478;12.066;2023-03-26T08:01:02;2.10;99.90
40996;DHT22;26723;57.478;12.066;2023-03-26T08:04:46;2.20;99.90
40996;DHT22;26723;57.478;12.066;2023-03-26T08:08:37;2.20;99.90
40996;DHT22;26723;57.478;12.066;2023-03-26T08:12:19;2.40;99.90
40996;DHT22;26723;57.478;12.066;2023-03-26T08:15:34;2.80;99.90
40996;DHT22;26723;57.478;12.066;2023-03-26T08:18:53;3.70;99.90
40996;DHT22;26723;57.478;12.066;2023-03-26T08:22:11;3.90;99.90
40996;DHT22;26723;57.478;12.066;2023-03-26T08:25:30;4.10;99.90
40996;DHT22;26723;57.478;12.066;2023-03-26T08:28:52;4.40;99.90
40996;DHT22;26723;57.478;12.066;2023-03-26T08:32:11;4.30;99.90
40996;DHT22;26723;57.478;12.066;2023-03-26T08:35:22;4.30;99.90
40996;DHT22;26723;57.478;12.066;2023-03-26T08:38:31;6.80;99.90
40996;DHT22;26723;57.478;12.066;2023-03-26T08:42:07;7.30;99.90
40996;DHT22;26723;57.478;12.066;2023-03-26T08:45:47;7.20;99.90
40996;DHT22;26723;57.478;12.066;2023-03-26T08:53:17;6.00;99.90
40996;DHT22;26723;57.478;12.066;2023-03-26T08:56:43;5.70;99.90
40996;DHT22;26723;57.478;12.066;2023-03-26T09:00:08;5.80;99.90
40996;DHT22;26723;57.478;12.066;2023-03-26T09:03:38;5.80;99.90
40996;DHT22;26723;57.478;12.066;2023-03-26T09:15:26;5.30;99.90
40996;DHT22;26723;57.478;12.066;2023-03-26T09:19:15;5.00;99.90
40996;DHT22;26723;57.478;12.066;2023-03-26T09:22:47;4.70;99.90
40996;DHT22;26723;57.478;12.066;2023-03-26T09:37:24;4.50;99.90
40996;DHT22;26723;57.478;12.066;2023-03-26T09:40:36;4.50;99.90
40996;DHT22;26723;57.478;12.066;2023-03-26T09:44:28;4.50;99.90
40996;DHT22;26723;57.478;12.066;2023-03-26T09:47:54;4.40;99.90
40996;DHT22;26723;57.478;12.066;2023-03-26T09:51:25;4.20;99.90
40996;DHT22;26723;57.478;12.066;2023-03-26T09:55:03;4.00;99.90
40996;DHT22;26723;57.478;12.066;2023-03-26T09:58:36;3.80;99.90
40996;DHT22;26723;57.478;12.066;2023-03-26T10:01:55;3.80;99.90
40996;DHT22;26723;57.478;12.066;2023-03-26T10:05:18;3.70;99.90
40996;DHT22;26723;57.478;12.066;2023-03-26T10:08:49;3.80;99.90
40996;DHT22;26723;57.478;12.066;2023-03-26T10:12:13;3.90;99.90
40996;DHT22;26723;57.478;12.066;2023-03-26T10:15:31;3.90;99.90
40996;DHT22;26723;57.478;12.066;2023-03-26T10:18:51;4.30;99.90
40996;DHT22;26723;57.478;12.066;2023-03-26T10:22:19;4.40;99.90
40996;DHT22;26723;57.478;12.066;2023-03-26T10:25:37;4.20;99.90
40996;DHT22;26723;57.478;12.066;2023-03-26T10:29:13;4.10;99.90
40996;DHT22;26723;57.478;12.066;2023-03-26T10:32:29;4.30;99.90
40996;DHT22;26723;57.478;12.066;2023-03-26T10:35:55;4.50;99.90
40996;DHT22;26723;57.478;12.066;2023-03-26T10:39:25;4.70;99.90
40996;DHT22;26723;57.478;12.066;2023-03-26T10:43:04;4.50;99.90
40996;DHT22;26723;57.478;12.066;2023-03-26T10:46:42;4.60;99.90
40996;DHT22;26723;57.478;12.066;2023-03-26T10:50:25;4.60;99.90
40996;DHT22;26723;57.478;12.066;2023-03-26T10:53:42;4.50;99.90
40996;DHT22;26723;57.478;12.066;2023-03-26T10:56:51;4.30;99.90
40996;DHT22;26723;57.478;12.066;2023-03-26T11:00:13;4.10;99.90
40996;DHT22;26723;57.478;12.066;2023-03-26T11:03:46;3.90;99.90
40996;DHT22;26723;57.478;12.066;2023-03-26T11:07:05;4.10;99.90
40996;DHT22;26723;57.478;12.066;2023-03-26T11:10:26;4.20;99.90
40996;DHT22;26723;57.478;12.066;2023-03-26T11:13:45;4.30;99.90
40996;DHT22;26723;57.478;12.066;2023-03-26T11:17:01;4.00;99.90
40996;DHT22;26723;57.478;12.066;2023-03-26T11:20:16;4.10;99.90
40996;DHT22;26723;57.478;12.066;2023-03-26T11:23:33;4.40;99.90
40996;DHT22;26723;57.478;12.066;2023-03-26T11:26:49;4.40;99.90
40996;DHT22;26723;57.478;12.066;2023-03-26T11:30:12;4.20;99.90
40996;DHT22;26723;57.478;12.066;2023-03-26T11:33:28;4.00;99.90
40996;DHT22;26723;57.478;12.066;2023-03-26T11:36:44;3.80;99.90
40996;DHT22;26723;57.478;12.066;2023-03-26T11:39:55;3.80;99.90
40996;DHT22;26723;57.478;12.066;2023-03-26T11:43:07;3.80;99.90
40996;DHT22;26723;57.478;12.066;2023-03-26T11:46:19;3.70;99.90
40996;DHT22;26723;57.478;12.066;2023-03-26T11:49:29;3.70;99.90
40996;DHT22;26723;57.478;12.066;2023-03-26T11:52:39;3.60;99.90
40996;DHT22;26723;57.478;12.066;2023-03-26T11:55:55;3.60;99.90
40996;DHT22;26723;57.478;12.066;2023-03-26T11:59:09;3.60;99.90
40996;DHT22;26723;57.478;12.066;2023-03-26T12:02:24;3.60;99.90
40996;DHT22;26723;57.478;12.066;2023-03-26T12:05:46;3.70;99.90
40996;DHT22;26723;57.478;12.066;2023-03-26T12:08:57;3.70;99.90
40996;DHT22;26723;57.478;12.066;2023-03-26T12:12:06;3.60;99.90
40996;DHT22;26723;57.478;12.066;2023-03-26T12:15:20;3.60;99.90
40996;DHT22;26723;57.478;12.066;2023-03-26T12:18:28;3.70;99.90
40996;DHT22;26723;57.478;12.066;2023-03-26T12:21:43;3.60;99.90
40996;DHT22;26723;57.478;12.066;2023-03-26T12:25:12;3.80;99.90
40996;DHT22;26723;57.478;12.066;2023-03-26T12:28:22;3.80;99.90
40996;DHT22;26723;57.478;12.066;2023-03-26T12:31:40;3.60;99.90
40996;DHT22;26723;57.478;12.066;2023-03-26T12:34:49;3.50;99.90
40996;DHT22;26723;57.478;12.066;2023-03-26T12:38:15;3.50;99.90
40996;DHT22;26723;57.478;12.066;2023-03-26T12:41:35;3.30;99.90
40996;DHT22;26723;57.478;12.066;2023-03-26T12:45:05;3.40;99.90
40996;DHT22;26723;57.478;12.066;2023-03-26T12:48:16;3.40;99.90
40996;DHT22;26723;57.478;12.066;2023-03-26T12:51:38;3.30;99.90
40996;DHT22;26723;57.478;12.066;2023-03-26T12:54:57;3.30;99.90
40996;DHT22;26723;57.478;12.066;2023-03-26T12:58:26;3.30;99.90
40996;DHT22;26723;57.478;12.066;2023-03-26T13:01:45;3.30;99.90
40996;DHT22;26723;57.478;12.066;2023-03-26T13:05:05;3.30;99.90
40996;DHT22;26723;57.478;12.066;2023-03-26T13:08:32;3.20;99.90
40996;DHT22;26723;57.478;12.066;2023-03-26T13:11:56;3.20;99.90
40996;DHT22;26723;57.478;12.066;2023-03-26T13:15:21;3.00;99.90
40996;DHT22;26723;57.478;12.066;2023-03-26T13:18:41;2.90;99.90
40996;DHT22;26723;57.478;12.066;2023-03-26T13:22:00;2.90;99.90
40996;DHT22;26723;57.478;12.066;2023-03-26T13:25:29;2.70;99.90
40996;DHT22;26723;57.478;12.066;2023-03-26T13:28:47;2.70;99.90
40996;DHT22;26723;57.478;12.066;2023-03-26T13:32:03;2.70;99.90
40996;DHT22;26723;57.478;12.066;2023-03-26T13:35:24;2.70;99.90
40996;DHT22;26723;57.478;12.066;2023-03-26T13:38:41;2.70;99.90
40996;DHT22;26723;57.478;12.066;2023-03-26T13:45:50;2.70;99.90
40996;DHT22;26723;57.478;12.066;2023-03-26T13:49:08;2.70;99.90
40996;DHT22;26723;57.478;12.066;2023-03-26T13:52:20;2.80;99.90
40996;DHT22;26723;57.478;12.066;2023-03-26T13:55:32;2.70;99.90
40996;DHT22;26723;57.478;12.066;2023-03-26T13:58:44;2.70;99.90
40996;DHT22;26723;57.478;12.066;2023-03-26T14:01:58;2.60;99.90
40996;DHT22;26723;57.478;12.066;2023-03-26T14:05:15;2.50;99.90
40996;DHT22;26723;57.478;12.066;2023-03-26T14:08:32;2.50;99.90
40996;DHT22;26723;57.478;12.066;2023-03-26T14:11:51;2.60;99.90
40996;DHT22;26723;57.478;12.066;2023-03-26T14:15:05;2.60;99.90
40996;DHT22;26723;57.478;12.066;2023-03-26T14:18:26;2.50;99.90
40996;DHT22;26723;57.478;12.066;2023-03-26T14:21:49;2.50;99.90
40996;DHT22;26723;57.478;12.066;2023-03-26T14:25:19;2.50;99.90
40996;DHT22;26723;57.478;12.066;2023-03-26T14:32:17;2.60;99.90
40996;DHT22;26723;57.478;12.066;2023-03-26T14:35:34;2.40;99.90
40996;DHT22;26723;57.478;12.066;2023-03-26T14:39:03;2.30;99.90
40996;DHT22;26723;57.478;12.066;2023-03-26T14:42:20;2.30;99.90
40996;DHT22;26723;57.478;12.066;2023-03-26T14:45:47;2.30;99.90
40996;DHT22;26723;57.478;12.066;2023-03-26T14:49:37;2.20;99.90
40996;DHT22;26723;57.478;12.066;2023-03-26T14:52:50;2.30;99.90
40996;DHT22;26723;57.478;12.066;2023-03-26T14:56:36;2.20;99.90
40996;DHT22;26723;57.478;12.066;2023-03-26T15:00:12;2.30;99.90
40996;DHT22;26723;57.478;12.066;2023-03-26T15:07:46;2.00;99.90
40996;DHT22;26723;57.478;12.066;2023-03-26T15:11:16;2.10;99.90
40996;DHT22;26723;57.478;12.066;2023-03-26T15:14:57;2.00;99.90
40996;DHT22;26723;57.478;12.066;2023-03-26T15:18:33;2.00;99.90
40996;DHT22;26723;57.478;12.066;2023-03-26T15:25:55;2.10;99.90
40996;DHT22;26723;57.478;12.066;2023-03-26T15:29:32;2.10;99.90
40996;DHT22;26723;57.478;12.066;2023-03-26T15:33:23;2.00;99.90
40996;DHT22;26723;57.478;12.066;2023-03-26T15:37:13;1.90;99.90
40996;DHT22;26723;57.478;12.066;2023-03-26T15:40:34;1.90;99.90
40996;DHT22;26723;57.478;12.066;2023-03-26T15:51:51;1.60;99.90
40996;DHT22;26723;57.478;12.066;2023-03-26T15:55:07;1.60;99.90
40996;DHT22;26723;57.478;12.066;2023-03-26T15:58:22;1.60;99.90
40996;DHT22;26723;57.478;12.066;2023-03-26T16:01:41;1.70;99.90
40996;DHT22;26723;57.478;12.066;2023-03-26T16:04:57;1.60;99.90
40996;DHT22;26723;57.478;12.066;2023-03-26T16:08:17;1.60;99.90
40996;DHT22;26723;57.478;12.066;2023-03-26T16:11:52;1.60;99.90
40996;DHT22;26723;57.478;12.066;2023-03-26T16:15:24;1.60;99.90
40996;DHT22;26723;57.478;12.066;2023-03-26T16:18:34;1.50;99.90
40996;DHT22;26723;57.478;12.066;2023-03-26T16:21:56;1.50;99.90
40996;DHT22;26723;57.478;12.066;2023-03-26T16:25:23;1.50;99.90
40996;DHT22;26723;57.478;12.066;2023-03-26T16:28:36;1.50;99.90
40996;DHT22;26723;57.478;12.066;2023-03-26T16:32:03;1.50;99.90
40996;DHT22;26723;57.478;12.066;2023-03-26T16:35:51;1.50;99.90
40996;DHT22;26723;57.478;12.066;2023-03-26T16:39:17;1.50;99.90
40996;DHT22;26723;57.478;12.066;2023-03-26T16:42:37;1.40;99.90
40996;DHT22;26723;57.478;12.066;2023-03-26T16:45:50;1.40;99.90
40996;DHT22;26723;57.478;12.066;2023-03-26T16:49:08;1.40;99.90
40996;DHT22;26723;57.478;12.066;2023-03-26T16:52:31;1.40;99.90
40996;DHT22;26723;57.478;12.066;2023-03-26T16:55:50;1.30;99.90
40996;DHT22;26723;57.478;12.066;2023-03-26T16:59:05;1.40;99.90
40996;DHT22;26723;57.478;12.066;2023-03-26T17:02:20;1.40;99.90
40996;DHT22;26723;57.478;12.066;2023-03-26T17:05:35;1.40;99.90
40996;DHT22;26723;57.478;12.066;2023-03-26T17:08:51;1.40;99.90
40996;DHT22;26723;57.478;12.066;2023-03-26T17:12:06;1.40;99.90
40996;DHT22;26723;57.478;12.066;2023-03-26T17:15:29;1.40;99.90
40996;DHT22;26723;57.478;12.066;2023-03-26T17:18:45;1.40;99.90
40996;DHT22;26723;57.478;12.066;2023-03-26T17:22:00;1.40;99.90
40996;DHT22;26723;57.478;12.066;2023-03-26T17:25:24;1.30;99.90
40996;DHT22;26723;57.478;12.066;2023-03-26T17:29:00;1.30;99.90
40996;DHT22;26723;57.478;12.066;2023-03-26T17:32:13;1.20;99.90
40996;DHT22;26723;57.478;12.066;2023-03-26T17:35:40;1.30;99.90
40996;DHT22;26723;57.478;12.066;2023-03-26T17:39:00;1.30;99.90
40996;DHT22;26723;57.478;12.066;2023-03-26T17:42:24;1.30;99.90
40996;DHT22;26723;57.478;12.066;2023-03-26T17:45:38;1.20;99.90
40996;DHT22;26723;57.478;12.066;2023-03-26T17:48:57;1.10;99.90
40996;DHT22;26723;57.478;12.066;2023-03-26T17:52:16;1.10;99.90
40996;DHT22;26723;57.478;12.066;2023-03-26T17:55:29;1.20;99.90
40996;DHT22;26723;57.478;12.066;2023-03-26T17:58:40;1.10;99.90
40996;DHT22;26723;57.478;12.066;2023-03-26T18:01:54;1.10;99.90
40996;DHT22;26723;57.478;12.066;2023-03-26T18:05:03;1.10;99.90
40996;DHT22;26723;57.478;12.066;2023-03-26T18:08:40;1.20;99.90
40996;DHT22;26723;57.478;12.066;2023-03-26T18:12:06;1.10;99.90
40996;DHT22;26723;57.478;12.066;2023-03-26T18:15:29;1.10;99.90
40996;DHT22;26723;57.478;12.066;2023-03-26T18:18:46;1.10;99.90
40996;DHT22;26723;57.478;12.066;2023-03-26T18:21:56;1.00;99.90
40996;DHT22;26723;57.478;12.066;2023-03-26T18:25:13;1.00;99.90
40996;DHT22;26723;57.478;12.066;2023-03-26T18:28:30;1.10;99.90
40996;DHT22;26723;57.478;12.066;2023-03-26T18:31:42;1.10;99.90
40996;DHT22;26723;57.478;12.066;2023-03-26T18:34:57;1.00;99.90
40996;DHT22;26723;57.478;12.066;2023-03-26T18:38:05;1.00;99.90
40996;DHT22;26723;57.478;12.066;2023-03-26T18:41:24;1.10;99.90
40996;DHT22;26723;57.478;12.066;2023-03-26T18:44:35;1.00;99.90
40996;DHT22;26723;57.478;12.066;2023-03-26T18:47:43;1.10;99.90
40996;DHT22;26723;57.478;12.066;2023-03-26T18:51:00;1.00;99.90
40996;DHT22;26723;57.478;12.066;2023-03-26T18:54:15;1.00;99.90
40996;DHT22;26723;57.478;12.066;2023-03-26T18:57:26;1.00;99.90
40996;DHT22;26723;57.478;12.066;2023-03-26T19:00:35;1.00;99.90
40996;DHT22;26723;57.478;12.066;2023-03-26T19:03:46;1.00;99.90
40996;DHT22;26723;57.478;12.066;2023-03-26T19:06:56;1.00;99.90
40996;DHT22;26723;57.478;12.066;2023-03-26T19:10:06;1.00;99.90
40996;DHT22;26723;57.478;12.066;2023-03-26T19:13:15;1.00;99.90
40996;DHT22;26723;57.478;12.066;2023-03-26T19:16:25;1.00;99.90
40996;DHT22;26723;57.478;12.066;2023-03-26T19:19:39;1.00;99.90
40996;DHT22;26723;57.478;12.066;2023-03-26T19:22:50;0.90;99.90
40996;DHT22;26723;57.478;12.066;2023-03-26T19:26:00;0.90;99.90
40996;DHT22;26723;57.478;12.066;2023-03-26T19:29:12;0.90;99.90
40996;DHT22;26723;57.478;12.066;2023-03-26T19:32:27;0.90;99.90
40996;DHT22;26723;57.478;12.066;2023-03-26T19:35:40;0.90;99.90
40996;DHT22;26723;57.478;12.066;2023-03-26T19:39:03;0.90;99.90
40996;DHT22;26723;57.478;12.066;2023-03-26T19:42:21;0.80;99.90
40996;DHT22;26723;57.478;12.066;2023-03-26T19:45:33;0.80;99.90
40996;DHT22;26723;57.478;12.066;2023-03-26T19:49:03;0.90;99.90
40996;DHT22;26723;57.478;12.066;2023-03-26T19:52:13;0.80;99.90
40996;DHT22;26723;57.478;12.066;2023-03-26T19:55:23;0.80;99.90
40996;DHT22;26723;57.478;12.066;2023-03-26T19:58:33;0.80;99.90
40996;DHT22;26723;57.478;12.066;2023-03-26T20:01:42;0.90;99.90
40996;DHT22;26723;57.478;12.066;2023-03-26T20:04:50;0.90;99.90
40996;DHT22;26723;57.478;12.066;2023-03-26T20:08:04;0.80;99.90
40996;DHT22;26723;57.478;12.066;2023-03-26T20:11:20;0.80;99.90
40996;DHT22;26723;57.478;12.066;2023-03-26T20:14:29;0.80;99.90
40996;DHT22;26723;57.478;12.066;2023-03-26T20:17:38;0.80;99.90
40996;DHT22;26723;57.478;12.066;2023-03-26T20:20:49;0.70;99.90
40996;DHT22;26723;57.478;12.066;2023-03-26T20:24:01;0.80;99.90
40996;DHT22;26723;57.478;12.066;2023-03-26T20:27:11;0.80;99.90
40996;DHT22;26723;57.478;12.066;2023-03-26T20:30:20;0.70;99.90
40996;DHT22;26723;57.478;12.066;2023-03-26T20:33:43;0.70;99.90
40996;DHT22;26723;57.478;12.066;2023-03-26T20:36:52;0.70;99.90
40996;DHT22;26723;57.478;12.066;2023-03-26T20:40:02;0.70;99.90
40996;DHT22;26723;57.478;12.066;2023-03-26T20:43:15;0.80;99.90
40996;DHT22;26723;57.478;12.066;2023-03-26T20:46:24;0.70;99.90
40996;DHT22;26723;57.478;12.066;2023-03-26T20:49:37;0.70;99.90
40996;DHT22;26723;57.478;12.066;2023-03-26T20:52:46;0.70;99.90
40996;DHT22;26723;57.478;12.066;2023-03-26T20:55:55;0.60;99.90
40996;DHT22;26723;57.478;12.066;2023-03-26T20:59:04;0.60;99.90
40996;DHT22;26723;57.478;12.066;2023-03-26T21:02:17;0.60;99.90
40996;DHT22;26723;57.478;12.066;2023-03-26T21:05:26;0.60;99.90
40996;DHT22;26723;57.478;12.066;2023-03-26T21:08:36;0.60;99.90
40996;DHT22;26723;57.478;12.066;2023-03-26T21:11:51;0.60;99.90
40996;DHT22;26723;57.478;12.066;2023-03-26T21:15:02;0.50;99.90
40996;DHT22;26723;57.478;12.066;2023-03-26T21:18:23;0.50;99.90
40996;DHT22;26723;57.478;12.066;2023-03-26T21:21:46;0.50;99.90
40996;DHT22;26723;57.478;12.066;2023-03-26T21:25:02;0.50;99.90
40996;DHT22;26723;57.478;12.066;2023-03-26T21:28:24;0.50;99.90
40996;DHT22;26723;57.478;12.066;2023-03-26T21:31:49;0.50;99.90
40996;DHT22;26723;57.478;12.066;2023-03-26T21:35:00;0.50;99.90
40996;DHT22;26723;57.478;12.066;2023-03-26T21:38:11;0.40;99.90
40996;DHT22;26723;57.478;12.066;2023-03-26T21:41:28;0.40;99.90